createdAt,value
2022-07-28T00:04:39.584Z,93643.76
2022-07-28T00:09:50.137Z,93646.06
2022-07-28T00:14:58.574Z,93647.15
2022-07-28T00:20:08.576Z,93649.89
2022-07-28T00:25:17.503Z,93648.38
2022-07-28T00:30:25.988Z,93644.17
2022-07-28T00:35:34.522Z,93645.53
2022-07-28T00:40:59.672Z,93642.41
2022-07-28T00:46:11.010Z,93637.77
2022-07-28T00:51:21.611Z,93627.79
2022-07-28T00:56:30.138Z,93624.79
2022-07-28T01:01:38.697Z,93615.24
2022-07-28T01:07:11.535Z,93607.61
2022-07-28T01:13:01.367Z,93614.37
2022-07-28T01:18:14.321Z,93614.70
2022-07-28T01:24:16.757Z,93611.70
2022-07-28T01:30:05.302Z,93616.48
2022-07-28T01:35:24.868Z,93624.57
2022-07-28T01:40:39.545Z,93617.12
2022-07-28T01:45:49.827Z,93624.16
2022-07-28T01:51:00.191Z,93625.91
2022-07-28T01:56:12.991Z,93628.27
2022-07-28T02:01:28.096Z,93624.18
2022-07-28T02:06:44.843Z,93621.31
2022-07-28T02:11:57.059Z,93623.50
2022-07-28T02:17:14.723Z,93623.95
2022-07-28T02:22:24.243Z,93625.70
2022-07-28T02:27:57.185Z,93619.83
2022-07-28T02:33:12.478Z,93619.37
2022-07-28T02:38:34.290Z,93618.52
2022-07-28T02:43:50.013Z,93622.75
2022-07-28T02:48:58.932Z,93613.23
2022-07-28T02:54:09.110Z,93619.23
2022-07-28T02:59:19.780Z,93618.77
2022-07-28T03:04:45.082Z,93625.69
2022-07-28T03:09:52.634Z,93628.73
2022-07-28T03:15:00.344Z,93629.74
2022-07-28T03:20:08.793Z,93635.53
2022-07-28T03:25:45.727Z,93649.02
2022-07-28T03:31:06.757Z,93643.32
2022-07-28T03:36:18.074Z,93652.66
2022-07-28T03:41:27.673Z,93652.17
2022-07-28T03:46:37.309Z,93659.71
2022-07-28T03:51:44.578Z,93662.39
2022-07-28T03:56:51.362Z,93658.44
2022-07-28T04:02:00.529Z,93662.29
2022-07-28T04:07:07.362Z,93661.11
2022-07-28T04:12:14.968Z,93666.64
2022-07-28T04:17:26.073Z,93666.13
2022-07-28T04:22:32.525Z,93669.41
2022-07-28T04:27:41.772Z,93675.45
2022-07-28T04:32:53.244Z,93674.29
2022-07-28T04:38:00.648Z,93679.83
2022-07-28T04:43:11.743Z,93684.36
2022-07-28T04:48:20.643Z,93678.14
2022-07-28T04:53:29.910Z,93684.03
2022-07-28T04:58:36.718Z,93681.94
2022-07-28T05:03:44.738Z,93681.81
2022-07-28T05:08:51.779Z,93691.28
2022-07-28T05:13:59.384Z,93694.38
2022-07-28T05:19:07.431Z,93698.02
2022-07-28T05:24:15.472Z,93699.66
2022-07-28T05:29:24.004Z,93712.62
2022-07-28T05:34:32.125Z,93709.22
2022-07-28T05:39:40.510Z,93711.27
2022-07-28T05:44:49.219Z,93717.33
2022-07-28T05:49:58.413Z,93712.14
2022-07-28T05:55:05.631Z,93707.98
2022-07-28T06:00:17.806Z,93698.47
2022-07-28T06:05:26.875Z,93699.66
2022-07-28T06:10:38.937Z,93701.45
2022-07-28T06:15:48.222Z,93707.23
2022-07-28T06:20:55.880Z,93711.86
2022-07-28T06:26:02.833Z,93713.78
2022-07-28T06:31:09.979Z,93726.23
2022-07-28T06:36:16.900Z,93729.98
2022-07-28T06:41:23.674Z,93726.36
2022-07-28T06:46:30.581Z,93721.75
2022-07-28T06:51:38.804Z,93729.05
2022-07-28T06:56:45.595Z,93736.00
2022-07-28T07:01:54.070Z,93735.28
2022-07-28T07:07:04.056Z,93737.22
2022-07-28T07:12:12.391Z,93738.48
2022-07-28T07:17:21.244Z,93740.55
2022-07-28T07:22:28.839Z,93736.20
2022-07-28T07:27:35.595Z,93745.95
2022-07-28T07:32:50.495Z,93744.83
2022-07-28T07:37:58.106Z,93750.23
2022-07-28T07:43:05.831Z,93744.92
2022-07-28T07:48:13.791Z,93744.09
2022-07-28T07:53:21.363Z,93747.78
2022-07-28T07:58:30.703Z,93754.18
2022-07-28T08:03:37.472Z,93745.47
2022-07-28T08:08:48.409Z,93750.62
2022-07-28T08:13:53.658Z,93743.29
2022-07-28T08:19:00.754Z,93746.14
2022-07-28T08:24:09.916Z,93738.52
2022-07-28T08:29:18.088Z,93743.34
2022-07-28T08:34:33.061Z,93752.48
2022-07-28T08:39:38.263Z,93751.61
2022-07-28T08:44:49.728Z,93745.69
2022-07-28T08:50:00.069Z,93748.73
2022-07-28T08:55:09.630Z,93742.02
2022-07-28T09:00:17.591Z,93757.13
2022-07-28T09:05:26.862Z,93754.55
2022-07-28T09:10:36.308Z,93756.83
2022-07-28T09:15:45.673Z,93752.46
2022-07-28T09:20:52.428Z,93746.75
2022-07-28T09:26:12.987Z,93744.52
2022-07-28T09:31:23.440Z,93755.69
2022-07-28T09:36:40.466Z,93746.77
2022-07-28T09:41:56.774Z,93754.39
2022-07-28T09:47:12.691Z,93754.76
2022-07-28T09:52:38.274Z,93749.36
2022-07-28T09:57:46.000Z,93751.56
2022-07-28T10:02:54.138Z,93747.83
2022-07-28T10:08:01.943Z,93739.36
2022-07-28T10:13:09.142Z,93734.38
2022-07-28T10:18:17.017Z,93731.66
2022-07-28T10:23:26.762Z,93728.18
2022-07-28T10:28:40.556Z,93726.45
2022-07-28T10:33:49.179Z,93718.94
2022-07-28T10:39:00.470Z,93728.42
2022-07-28T10:44:14.500Z,93714.09
2022-07-28T10:49:27.648Z,93709.39
2022-07-28T10:54:36.602Z,93715.66
2022-07-28T11:00:12.833Z,93705.70
2022-07-28T11:05:35.811Z,93707.42
2022-07-28T11:10:56.242Z,93705.00
2022-07-28T11:16:22.113Z,93698.19
2022-07-28T11:21:39.659Z,93699.67
2022-07-28T11:26:42.355Z,93698.08
2022-07-28T11:31:53.698Z,93696.38
2022-07-28T11:37:14.989Z,93694.72
2022-07-28T11:42:37.016Z,93701.70
2022-07-28T11:47:45.742Z,93698.42
2022-07-28T11:53:00.098Z,93698.50
2022-07-28T11:58:08.582Z,93695.64
2022-07-28T12:03:49.019Z,93686.84
2022-07-28T12:09:03.115Z,93689.41
2022-07-28T12:14:18.080Z,93674.64
2022-07-28T12:19:32.895Z,93668.34
2022-07-28T12:24:45.840Z,93677.55
2022-07-28T12:29:49.484Z,93663.17
2022-07-28T12:34:56.467Z,93654.05
2022-07-28T12:40:03.872Z,93647.06
2022-07-28T12:45:13.329Z,93656.23
2022-07-28T12:50:22.991Z,93658.27
2022-07-28T12:55:33.260Z,93653.06
2022-07-28T13:00:41.575Z,93643.09
2022-07-28T13:06:05.439Z,93638.13
2022-07-28T13:16:30.315Z,93628.63
2022-07-28T13:21:57.155Z,93627.67
2022-07-28T13:26:55.942Z,93623.66
2022-07-28T13:32:03.006Z,93613.88
2022-07-28T13:37:12.178Z,93609.59
2022-07-28T13:42:20.497Z,93612.25
2022-07-28T13:47:35.456Z,93602.02
2022-07-28T13:52:38.496Z,93604.51
2022-07-28T13:57:46.034Z,93600.66
2022-07-28T14:02:55.691Z,93605.14
2022-07-28T14:08:04.955Z,93594.25
2022-07-28T14:13:11.670Z,93588.95
2022-07-28T14:18:19.515Z,93586.75
2022-07-28T14:23:28.988Z,93582.97
2022-07-28T14:28:37.462Z,93587.24
2022-07-28T14:33:48.379Z,93583.07
2022-07-28T14:38:54.749Z,93572.19
2022-07-28T14:44:03.334Z,93574.10
2022-07-28T14:49:10.180Z,93575.73
2022-07-28T14:54:19.426Z,93567.34
2022-07-28T14:59:27.939Z,93562.27
2022-07-28T15:04:36.669Z,93556.95
2022-07-28T15:09:48.768Z,93549.52
2022-07-28T15:14:55.044Z,93544.22
2022-07-28T15:20:03.645Z,93550.57
2022-07-28T15:25:13.217Z,93544.75
2022-07-28T15:30:20.013Z,93546.55
2022-07-28T15:35:29.436Z,93550.36
2022-07-28T15:40:37.862Z,93547.30
2022-07-28T15:45:45.207Z,93543.67
2022-07-28T15:50:54.482Z,93547.20
2022-07-28T15:56:01.466Z,93536.46
2022-07-28T16:01:09.987Z,93531.56
2022-07-28T16:06:19.581Z,93535.11
2022-07-28T16:11:28.061Z,93533.84
2022-07-28T16:16:36.395Z,93527.27
2022-07-28T16:21:43.509Z,93529.14
2022-07-28T16:26:52.711Z,93522.58
2022-07-28T16:31:59.428Z,93515.78
2022-07-28T16:37:07.237Z,93515.47
2022-07-28T16:42:16.006Z,93515.28
2022-07-28T16:47:23.155Z,93518.37
2022-07-28T16:52:30.743Z,93515.91
2022-07-28T16:57:39.001Z,93514.34
2022-07-28T17:02:46.388Z,93513.67
2022-07-28T17:07:54.081Z,93509.92
2022-07-28T17:13:02.227Z,93518.00
2022-07-28T17:18:09.369Z,93520.20
2022-07-28T17:23:18.155Z,93522.23
2022-07-28T17:28:26.332Z,93517.22
2022-07-28T17:33:34.339Z,93525.44
2022-07-28T17:38:41.045Z,93525.44
2022-07-28T17:43:48.325Z,93515.58
2022-07-28T17:48:56.133Z,93523.94
2022-07-28T17:54:03.825Z,93523.12
2022-07-28T17:59:12.029Z,93529.22
2022-07-28T18:04:19.435Z,93527.25
2022-07-28T18:09:28.405Z,93522.84
2022-07-28T18:14:36.230Z,93532.20
2022-07-28T18:19:45.502Z,93535.95
2022-07-28T18:24:51.599Z,93538.88
2022-07-28T18:29:59.461Z,93541.28
2022-07-28T18:35:06.332Z,93554.58
2022-07-28T18:40:19.349Z,93552.31
2022-07-28T18:45:26.881Z,93567.95
2022-07-28T18:50:35.617Z,93572.58
2022-07-28T18:55:44.669Z,93573.83
2022-07-28T19:00:52.498Z,93584.95
2022-07-28T19:06:00.120Z,93590.01
2022-07-28T19:11:08.207Z,93594.03
2022-07-28T19:16:15.329Z,93601.25
2022-07-28T19:21:22.951Z,93604.19
2022-07-28T19:26:30.622Z,93608.27
2022-07-28T19:31:37.993Z,93612.64
2022-07-28T19:36:47.142Z,93622.30
2022-07-28T19:41:54.464Z,93619.50
2022-07-28T19:47:02.173Z,93627.14
2022-07-28T19:52:10.258Z,93631.91
2022-07-28T19:57:22.654Z,93634.34
2022-07-28T20:02:32.799Z,93631.96
2022-07-28T20:07:40.663Z,93642.61
2022-07-28T20:12:47.836Z,93656.78
2022-07-28T20:17:55.614Z,93660.55
2022-07-28T20:23:03.372Z,93654.03
2022-07-28T20:28:12.971Z,93657.52
2022-07-28T20:33:20.791Z,93654.75
2022-07-28T20:38:31.689Z,93654.83
2022-07-28T20:43:41.391Z,93672.46
2022-07-28T20:48:48.275Z,93670.95
2022-07-28T20:53:56.158Z,93676.11
2022-07-28T20:59:07.101Z,93668.48
2022-07-28T21:04:15.432Z,93671.73
2022-07-28T21:09:26.831Z,93661.51
2022-07-28T21:14:38.601Z,93656.37
2022-07-28T21:19:45.602Z,93658.38
2022-07-28T21:24:55.781Z,93655.80
2022-07-28T21:30:03.423Z,93656.48
2022-07-28T21:35:14.227Z,93645.30
2022-07-28T21:40:18.939Z,93645.14
2022-07-28T21:45:28.092Z,93645.52
2022-07-28T21:50:40.256Z,93653.27
2022-07-28T21:55:50.459Z,93655.88
2022-07-28T22:01:02.472Z,93654.67
2022-07-28T22:06:08.956Z,93656.77
2022-07-28T22:11:16.536Z,93663.44
2022-07-28T22:16:23.495Z,93657.73
2022-07-28T22:21:30.587Z,93653.45
2022-07-28T22:26:37.845Z,93653.45
2022-07-28T22:31:47.609Z,93644.87
2022-07-28T22:36:55.841Z,93641.50
2022-07-28T22:42:03.351Z,93640.36
2022-07-28T22:47:11.375Z,93639.70
2022-07-28T22:52:21.782Z,93632.34
2022-07-28T22:57:33.258Z,93632.73
2022-07-28T23:02:41.421Z,93627.25
2022-07-28T23:07:53.372Z,93633.34
2022-07-28T23:12:58.967Z,93636.89
2022-07-28T23:18:07.751Z,93624.42
2022-07-28T23:23:18.748Z,93626.45
2022-07-28T23:28:29.180Z,93628.35
2022-07-28T23:33:54.565Z,93621.11
2022-07-28T23:38:50.253Z,93623.35
2022-07-28T23:43:59.521Z,93624.92
2022-07-28T23:49:06.432Z,93623.80
2022-07-28T23:54:15.988Z,93625.78
2022-07-28T23:59:24.554Z,93628.56
